sensor_id;sensor_type;location;lat;lon;timestamp;pressure;altitude;pressure_sealevel;temperature
61390;BMP280;47260;48.274;19.814;2022-08-01T00:01:32;99094.28;;;15.95
61390;BMP280;47260;48.274;19.814;2022-08-01T00:03:59;99092.09;;;15.93
61390;BMP280;47260;48.274;19.814;2022-08-01T00:06:27;99086.88;;;15.95
61390;BMP280;47260;48.274;19.814;2022-08-01T00:08:54;99081.63;;;15.97
61390;BMP280;47260;48.274;19.814;2022-08-01T00:11:21;99085.06;;;15.98
61390;BMP280;47260;48.274;19.814;2022-08-01T00:13:49;99076.94;;;15.98
61390;BMP280;47260;48.274;19.814;2022-08-01T00:16:16;99080.56;;;16.00
61390;BMP280;47260;48.274;19.814;2022-08-01T00:18:43;99078.06;;;16.02
61390;BMP280;47260;48.274;19.814;2022-08-01T00:21:10;99079.63;;;15.98
61390;BMP280;47260;48.274;19.814;2022-08-01T00:23:37;99089.19;;;15.91
61390;BMP280;47260;48.274;19.814;2022-08-01T00:26:03;99082.09;;;15.81
61390;BMP280;47260;48.274;19.814;2022-08-01T00:28:30;99080.69;;;15.80
61390;BMP280;47260;48.274;19.814;2022-08-01T00:30:58;99079.06;;;15.84
61390;BMP280;47260;48.274;19.814;2022-08-01T00:33:25;99071.69;;;15.92
61390;BMP280;47260;48.274;19.814;2022-08-01T00:35:52;99068.44;;;15.94
61390;BMP280;47260;48.274;19.814;2022-08-01T00:38:19;99069.19;;;15.94
61390;BMP280;47260;48.274;19.814;2022-08-01T00:40:45;99076.75;;;15.96
61390;BMP280;47260;48.274;19.814;2022-08-01T00:43:12;99070.63;;;15.95
61390;BMP280;47260;48.274;19.814;2022-08-01T00:45:39;99074.75;;;15.96
61390;BMP280;47260;48.274;19.814;2022-08-01T00:48:07;99072.97;;;15.99
61390;BMP280;47260;48.274;19.814;2022-08-01T00:50:34;99070.81;;;15.97
61390;BMP280;47260;48.274;19.814;2022-08-01T00:53:01;99063.94;;;15.96
61390;BMP280;47260;48.274;19.814;2022-08-01T00:55:28;99060.34;;;16.01
61390;BMP280;47260;48.274;19.814;2022-08-01T00:57:56;99062.91;;;16.07
61390;BMP280;47260;48.274;19.814;2022-08-01T01:00:24;99058.22;;;16.07
61390;BMP280;47260;48.274;19.814;2022-08-01T01:02:51;99068.81;;;15.98
61390;BMP280;47260;48.274;19.814;2022-08-01T01:05:19;99070.41;;;15.93
61390;BMP280;47260;48.274;19.814;2022-08-01T01:07:50;99070.06;;;15.89
61390;BMP280;47260;48.274;19.814;2022-08-01T01:10:23;99068.25;;;15.92
61390;BMP280;47260;48.274;19.814;2022-08-01T01:12:58;99069.69;;;15.93
61390;BMP280;47260;48.274;19.814;2022-08-01T01:15:30;99075.50;;;15.97
61390;BMP280;47260;48.274;19.814;2022-08-01T01:18:03;99061.81;;;16.02
61390;BMP280;47260;48.274;19.814;2022-08-01T01:20:36;99063.63;;;16.00
61390;BMP280;47260;48.274;19.814;2022-08-01T01:23:15;99071.50;;;15.98
61390;BMP280;47260;48.274;19.814;2022-08-01T01:25:59;99075.88;;;16.01
61390;BMP280;47260;48.274;19.814;2022-08-01T01:28:34;99075.53;;;16.04
61390;BMP280;47260;48.274;19.814;2022-08-01T01:31:05;99076.06;;;16.03
61390;BMP280;47260;48.274;19.814;2022-08-01T01:33:34;99074.06;;;16.03
61390;BMP280;47260;48.274;19.814;2022-08-01T01:36:05;99071.91;;;16.02
61390;BMP280;47260;48.274;19.814;2022-08-01T01:38:37;99068.47;;;16.01
61390;BMP280;47260;48.274;19.814;2022-08-01T01:41:08;99073.66;;;15.92
61390;BMP280;47260;48.274;19.814;2022-08-01T01:43:37;99075.28;;;15.87
61390;BMP280;47260;48.274;19.814;2022-08-01T01:46:06;99075.28;;;15.87
61390;BMP280;47260;48.274;19.814;2022-08-01T01:48:34;99068.59;;;15.88
61390;BMP280;47260;48.274;19.814;2022-08-01T01:51:02;99069.00;;;15.92
61390;BMP280;47260;48.274;19.814;2022-08-01T01:53:31;99065.19;;;15.95
61390;BMP280;47260;48.274;19.814;2022-08-01T01:56:01;99062.50;;;15.95
61390;BMP280;47260;48.274;19.814;2022-08-01T01:58:31;99052.94;;;15.94
61390;BMP280;47260;48.274;19.814;2022-08-01T02:00:59;99056.09;;;15.85
61390;BMP280;47260;48.274;19.814;2022-08-01T02:03:28;99058.09;;;15.77
61390;BMP280;47260;48.274;19.814;2022-08-01T02:05:57;99058.28;;;15.79
61390;BMP280;47260;48.274;19.814;2022-08-01T02:08:25;99051.44;;;15.86
61390;BMP280;47260;48.274;19.814;2022-08-01T02:10:53;99048.41;;;15.89
61390;BMP280;47260;48.274;19.814;2022-08-01T02:13:38;99054.19;;;15.93
61390;BMP280;47260;48.274;19.814;2022-08-01T02:16:07;99055.66;;;15.94
61390;BMP280;47260;48.274;19.814;2022-08-01T02:18:37;99047.69;;;15.96
61390;BMP280;47260;48.274;19.814;2022-08-01T02:21:08;99061.53;;;15.85
61390;BMP280;47260;48.274;19.814;2022-08-01T02:23:38;99066.72;;;15.76
61390;BMP280;47260;48.274;19.814;2022-08-01T02:26:09;99060.75;;;15.70
61390;BMP280;47260;48.274;19.814;2022-08-01T02:28:43;99058.75;;;15.70
61390;BMP280;47260;48.274;19.814;2022-08-01T02:31:13;99056.81;;;15.78
61390;BMP280;47260;48.274;19.814;2022-08-01T02:33:44;99065.09;;;15.80
61390;BMP280;47260;48.274;19.814;2022-08-01T02:36:12;99068.75;;;15.83
61390;BMP280;47260;48.274;19.814;2022-08-01T02:38:42;99072.34;;;15.85
61390;BMP280;47260;48.274;19.814;2022-08-01T02:41:12;99071.81;;;15.79
61390;BMP280;47260;48.274;19.814;2022-08-01T02:43:43;99067.78;;;15.73
61390;BMP280;47260;48.274;19.814;2022-08-01T02:46:16;99061.44;;;15.70
61390;BMP280;47260;48.274;19.814;2022-08-01T02:48:45;99064.00;;;15.68
61390;BMP280;47260;48.274;19.814;2022-08-01T02:51:15;99066.69;;;15.68
61390;BMP280;47260;48.274;19.814;2022-08-01T02:53:43;99068.53;;;15.73
61390;BMP280;47260;48.274;19.814;2022-08-01T02:56:13;99064.00;;;15.76
61390;BMP280;47260;48.274;19.814;2022-08-01T02:58:40;99055.00;;;15.81
61390;BMP280;47260;48.274;19.814;2022-08-01T03:01:09;99059.19;;;15.82
61390;BMP280;47260;48.274;19.814;2022-08-01T03:03:37;99067.81;;;15.80
61390;BMP280;47260;48.274;19.814;2022-08-01T03:06:06;99070.34;;;15.78
61390;BMP280;47260;48.274;19.814;2022-08-01T03:08:34;99072.88;;;15.76
61390;BMP280;47260;48.274;19.814;2022-08-01T03:11:02;99065.63;;;15.71
61390;BMP280;47260;48.274;19.814;2022-08-01T03:13:30;99068.00;;;15.75
61390;BMP280;47260;48.274;19.814;2022-08-01T03:15:59;99062.19;;;15.71
61390;BMP280;47260;48.274;19.814;2022-08-01T03:18:28;99068.09;;;15.62
61390;BMP280;47260;48.274;19.814;2022-08-01T03:20:56;99069.50;;;15.55
61390;BMP280;47260;48.274;19.814;2022-08-01T03:23:25;99068.03;;;15.47
61390;BMP280;47260;48.274;19.814;2022-08-01T03:25:53;99071.91;;;15.38
61390;BMP280;47260;48.274;19.814;2022-08-01T03:28:22;99081.16;;;15.43
61390;BMP280;47260;48.274;19.814;2022-08-01T03:30:49;99070.00;;;15.46
61390;BMP280;47260;48.274;19.814;2022-08-01T03:33:16;99067.16;;;15.52
61390;BMP280;47260;48.274;19.814;2022-08-01T03:35:47;99067.66;;;15.50
61390;BMP280;47260;48.274;19.814;2022-08-01T03:38:15;99078.47;;;15.50
61390;BMP280;47260;48.274;19.814;2022-08-01T03:40:47;99078.47;;;15.50
61390;BMP280;47260;48.274;19.814;2022-08-01T03:43:18;99091.50;;;15.52
61390;BMP280;47260;48.274;19.814;2022-08-01T03:45:48;99088.97;;;15.54
61390;BMP280;47260;48.274;19.814;2022-08-01T03:48:17;99085.34;;;15.51
61390;BMP280;47260;48.274;19.814;2022-08-01T03:50:47;99084.44;;;15.49
61390;BMP280;47260;48.274;19.814;2022-08-01T03:53:15;99091.78;;;15.41
61390;BMP280;47260;48.274;19.814;2022-08-01T03:55:46;99093.38;;;15.36
61390;BMP280;47260;48.274;19.814;2022-08-01T03:58:14;99094.56;;;15.28
61390;BMP280;47260;48.274;19.814;2022-08-01T04:00:41;99097.03;;;15.26
61390;BMP280;47260;48.274;19.814;2022-08-01T04:03:08;99095.63;;;15.25
61390;BMP280;47260;48.274;19.814;2022-08-01T04:05:35;99089.66;;;15.26
61390;BMP280;47260;48.274;19.814;2022-08-01T04:08:03;99082.28;;;15.27
61390;BMP280;47260;48.274;19.814;2022-08-01T04:10:29;99088.28;;;15.33
61390;BMP280;47260;48.274;19.814;2022-08-01T04:12:58;99083.81;;;15.35
61390;BMP280;47260;48.274;19.814;2022-08-01T04:15:25;99086.84;;;15.32
61390;BMP280;47260;48.274;19.814;2022-08-01T04:17:52;99092.81;;;15.30
61390;BMP280;47260;48.274;19.814;2022-08-01T04:20:19;99096.75;;;15.29
61390;BMP280;47260;48.274;19.814;2022-08-01T04:22:46;99103.00;;;15.24
61390;BMP280;47260;48.274;19.814;2022-08-01T04:25:16;99099.63;;;15.31
61390;BMP280;47260;48.274;19.814;2022-08-01T04:27:46;99104.91;;;15.37
61390;BMP280;47260;48.274;19.814;2022-08-01T04:30:16;99104.84;;;15.50
61390;BMP280;47260;48.274;19.814;2022-08-01T04:32:46;99104.31;;;15.59
61390;BMP280;47260;48.274;19.814;2022-08-01T04:35:14;99103.75;;;16.16
61390;BMP280;47260;48.274;19.814;2022-08-01T04:37:44;99104.50;;;17.83
61390;BMP280;47260;48.274;19.814;2022-08-01T04:40:12;99106.84;;;18.90
61390;BMP280;47260;48.274;19.814;2022-08-01T04:42:39;99102.03;;;19.74
61390;BMP280;47260;48.274;19.814;2022-08-01T04:45:07;99095.72;;;20.51
61390;BMP280;47260;48.274;19.814;2022-08-01T04:47:36;99097.00;;;21.24
61390;BMP280;47260;48.274;19.814;2022-08-01T04:50:05;99105.38;;;21.36
61390;BMP280;47260;48.274;19.814;2022-08-01T04:52:34;99100.72;;;21.76
61390;BMP280;47260;48.274;19.814;2022-08-01T04:55:01;99102.59;;;22.33
61390;BMP280;47260;48.274;19.814;2022-08-01T04:57:28;99106.31;;;22.38
61390;BMP280;47260;48.274;19.814;2022-08-01T04:59:56;99115.91;;;22.79
61390;BMP280;47260;48.274;19.814;2022-08-01T05:02:23;99109.97;;;23.57
61390;BMP280;47260;48.274;19.814;2022-08-01T05:04:54;99107.09;;;24.22
61390;BMP280;47260;48.274;19.814;2022-08-01T05:07:21;99112.84;;;24.97
61390;BMP280;47260;48.274;19.814;2022-08-01T05:09:48;99113.66;;;25.36
61390;BMP280;47260;48.274;19.814;2022-08-01T05:12:16;99113.34;;;25.69
61390;BMP280;47260;48.274;19.814;2022-08-01T05:14:43;99111.78;;;26.04
61390;BMP280;47260;48.274;19.814;2022-08-01T05:17:10;99118.81;;;26.21
61390;BMP280;47260;48.274;19.814;2022-08-01T05:19:38;99112.19;;;26.39
61390;BMP280;47260;48.274;19.814;2022-08-01T05:22:08;99114.34;;;26.27
61390;BMP280;47260;48.274;19.814;2022-08-01T05:24:36;99115.84;;;26.03
61390;BMP280;47260;48.274;19.814;2022-08-01T05:27:04;99110.34;;;26.03
61390;BMP280;47260;48.274;19.814;2022-08-01T05:29:31;99126.84;;;24.90
61390;BMP280;47260;48.274;19.814;2022-08-01T05:31:58;99124.66;;;24.40
61390;BMP280;47260;48.274;19.814;2022-08-01T05:34:26;99134.44;;;25.39
61390;BMP280;47260;48.274;19.814;2022-08-01T05:36:53;99130.06;;;25.73
61390;BMP280;47260;48.274;19.814;2022-08-01T05:39:21;99124.91;;;25.92
61390;BMP280;47260;48.274;19.814;2022-08-01T05:41:48;99132.91;;;26.40
61390;BMP280;47260;48.274;19.814;2022-08-01T05:44:15;99126.97;;;26.59
61390;BMP280;47260;48.274;19.814;2022-08-01T05:46:42;99136.66;;;27.03
61390;BMP280;47260;48.274;19.814;2022-08-01T05:49:08;99134.09;;;27.36
61390;BMP280;47260;48.274;19.814;2022-08-01T05:51:35;99133.00;;;27.88
61390;BMP280;47260;48.274;19.814;2022-08-01T05:54:02;99126.84;;;28.05
61390;BMP280;47260;48.274;19.814;2022-08-01T05:56:30;99134.09;;;28.29
61390;BMP280;47260;48.274;19.814;2022-08-01T05:58:57;99135.41;;;28.61
61390;BMP280;47260;48.274;19.814;2022-08-01T06:01:24;99145.69;;;28.26
61390;BMP280;47260;48.274;19.814;2022-08-01T06:03:51;99136.66;;;29.09
61390;BMP280;47260;48.274;19.814;2022-08-01T06:06:19;99140.03;;;29.62
61390;BMP280;47260;48.274;19.814;2022-08-01T06:08:47;99146.06;;;29.76
61390;BMP280;47260;48.274;19.814;2022-08-01T06:11:14;99141.97;;;29.96
61390;BMP280;47260;48.274;19.814;2022-08-01T06:13:42;99149.50;;;29.94
61390;BMP280;47260;48.274;19.814;2022-08-01T06:16:08;99141.66;;;30.49
61390;BMP280;47260;48.274;19.814;2022-08-01T06:18:35;99149.78;;;30.43
61390;BMP280;47260;48.274;19.814;2022-08-01T06:21:02;99138.22;;;30.29
61390;BMP280;47260;48.274;19.814;2022-08-01T06:23:29;99146.50;;;30.27
61390;BMP280;47260;48.274;19.814;2022-08-01T06:25:56;99145.56;;;30.01
61390;BMP280;47260;48.274;19.814;2022-08-01T06:28:23;99149.19;;;30.25
61390;BMP280;47260;48.274;19.814;2022-08-01T06:30:51;99146.84;;;30.58
61390;BMP280;47260;48.274;19.814;2022-08-01T06:33:18;99151.09;;;31.30
61390;BMP280;47260;48.274;19.814;2022-08-01T06:35:46;99148.53;;;31.59
61390;BMP280;47260;48.274;19.814;2022-08-01T06:38:13;99156.63;;;31.77
61390;BMP280;47260;48.274;19.814;2022-08-01T06:40:39;99153.03;;;32.25
61390;BMP280;47260;48.274;19.814;2022-08-01T06:43:06;99155.03;;;32.48
61390;BMP280;47260;48.274;19.814;2022-08-01T06:45:33;99150.88;;;33.10
61390;BMP280;47260;48.274;19.814;2022-08-01T06:48:03;99151.25;;;32.65
61390;BMP280;47260;48.274;19.814;2022-08-01T06:50:31;99147.69;;;32.61
61390;BMP280;47260;48.274;19.814;2022-08-01T06:52:58;99161.84;;;33.36
61390;BMP280;47260;48.274;19.814;2022-08-01T06:55:24;99154.53;;;33.52
61390;BMP280;47260;48.274;19.814;2022-08-01T06:57:52;99155.88;;;33.87
61390;BMP280;47260;48.274;19.814;2022-08-01T07:00:21;99151.53;;;33.78
61390;BMP280;47260;48.274;19.814;2022-08-01T07:02:49;99155.28;;;33.57
61390;BMP280;47260;48.274;19.814;2022-08-01T07:05:17;99154.50;;;32.85
61390;BMP280;47260;48.274;19.814;2022-08-01T07:07:44;99148.78;;;33.44
61390;BMP280;47260;48.274;19.814;2022-08-01T07:10:11;99145.28;;;34.21
61390;BMP280;47260;48.274;19.814;2022-08-01T07:12:38;99147.69;;;34.40
61390;BMP280;47260;48.274;19.814;2022-08-01T07:15:07;99144.38;;;34.50
61390;BMP280;47260;48.274;19.814;2022-08-01T07:17:36;99145.25;;;35.16
61390;BMP280;47260;48.274;19.814;2022-08-01T07:20:05;99142.31;;;35.04
61390;BMP280;47260;48.274;19.814;2022-08-01T07:22:33;99140.63;;;35.36
61390;BMP280;47260;48.274;19.814;2022-08-01T07:25:00;99147.19;;;35.01
61390;BMP280;47260;48.274;19.814;2022-08-01T07:27:26;99149.75;;;34.38
61390;BMP280;47260;48.274;19.814;2022-08-01T07:29:53;99144.91;;;32.61
61390;BMP280;47260;48.274;19.814;2022-08-01T07:32:20;99152.53;;;32.60
61390;BMP280;47260;48.274;19.814;2022-08-01T07:34:47;99147.25;;;33.04
61390;BMP280;47260;48.274;19.814;2022-08-01T07:37:13;99156.28;;;33.73
61390;BMP280;47260;48.274;19.814;2022-08-01T07:39:42;99153.41;;;34.05
61390;BMP280;47260;48.274;19.814;2022-08-01T07:42:09;99151.88;;;34.87
61390;BMP280;47260;48.274;19.814;2022-08-01T07:44:36;99152.91;;;35.11
61390;BMP280;47260;48.274;19.814;2022-08-01T07:47:03;99148.06;;;35.18
61390;BMP280;47260;48.274;19.814;2022-08-01T07:49:30;99159.81;;;35.08
61390;BMP280;47260;48.274;19.814;2022-08-01T07:51:57;99149.78;;;33.61
61390;BMP280;47260;48.274;19.814;2022-08-01T07:54:23;99158.56;;;32.51
61390;BMP280;47260;48.274;19.814;2022-08-01T07:56:54;99160.19;;;30.64
61390;BMP280;47260;48.274;19.814;2022-08-01T07:59:21;99156.56;;;30.18
61390;BMP280;47260;48.274;19.814;2022-08-01T08:01:49;99142.84;;;29.27
61390;BMP280;47260;48.274;19.814;2022-08-01T08:04:16;99150.03;;;29.51
61390;BMP280;47260;48.274;19.814;2022-08-01T08:06:43;99143.41;;;29.78
61390;BMP280;47260;48.274;19.814;2022-08-01T08:09:13;99142.31;;;29.87
61390;BMP280;47260;48.274;19.814;2022-08-01T08:11:41;99140.94;;;30.27
61390;BMP280;47260;48.274;19.814;2022-08-01T08:14:10;99149.91;;;30.25
61390;BMP280;47260;48.274;19.814;2022-08-01T08:16:37;99143.56;;;30.23
61390;BMP280;47260;48.274;19.814;2022-08-01T08:19:04;99142.69;;;29.77
61390;BMP280;47260;48.274;19.814;2022-08-01T08:21:31;99143.88;;;29.72
61390;BMP280;47260;48.274;19.814;2022-08-01T08:23:57;99145.97;;;28.49
61390;BMP280;47260;48.274;19.814;2022-08-01T08:26:42;99144.09;;;28.21
61390;BMP280;47260;48.274;19.814;2022-08-01T08:29:10;99146.78;;;28.36
61390;BMP280;47260;48.274;19.814;2022-08-01T08:31:36;99141.63;;;28.11
61390;BMP280;47260;48.274;19.814;2022-08-01T08:34:03;99160.41;;;27.68
61390;BMP280;47260;48.274;19.814;2022-08-01T08:36:30;99142.03;;;28.21
61390;BMP280;47260;48.274;19.814;2022-08-01T08:38:57;99148.88;;;28.36
61390;BMP280;47260;48.274;19.814;2022-08-01T08:41:25;99154.38;;;28.86
61390;BMP280;47260;48.274;19.814;2022-08-01T08:43:52;99149.59;;;29.04
61390;BMP280;47260;48.274;19.814;2022-08-01T08:46:21;99157.16;;;28.86
61390;BMP280;47260;48.274;19.814;2022-08-01T08:48:48;99151.97;;;29.12
61390;BMP280;47260;48.274;19.814;2022-08-01T08:51:17;99149.59;;;28.87
61390;BMP280;47260;48.274;19.814;2022-08-01T08:53:46;99160.72;;;28.89
61390;BMP280;47260;48.274;19.814;2022-08-01T08:56:13;99160.63;;;28.87
61390;BMP280;47260;48.274;19.814;2022-08-01T08:58:41;99158.13;;;28.93
61390;BMP280;47260;48.274;19.814;2022-08-01T09:01:10;99161.69;;;29.13
61390;BMP280;47260;48.274;19.814;2022-08-01T09:03:39;99160.28;;;28.61
61390;BMP280;47260;48.274;19.814;2022-08-01T09:06:06;99157.63;;;27.99
61390;BMP280;47260;48.274;19.814;2022-08-01T09:08:33;99158.19;;;27.80
61390;BMP280;47260;48.274;19.814;2022-08-01T09:11:00;99158.06;;;28.09
61390;BMP280;47260;48.274;19.814;2022-08-01T09:13:27;99159.56;;;28.28
61390;BMP280;47260;48.274;19.814;2022-08-01T09:15:55;99164.41;;;28.12
61390;BMP280;47260;48.274;19.814;2022-08-01T09:18:29;99161.84;;;27.40
61390;BMP280;47260;48.274;19.814;2022-08-01T09:21:09;99156.00;;;27.48
61390;BMP280;47260;48.274;19.814;2022-08-01T09:23:37;99153.06;;;27.44
61390;BMP280;47260;48.274;19.814;2022-08-01T09:26:08;99150.13;;;27.55
61390;BMP280;47260;48.274;19.814;2022-08-01T09:28:35;99150.81;;;27.40
61390;BMP280;47260;48.274;19.814;2022-08-01T09:31:05;99153.34;;;27.65
61390;BMP280;47260;48.274;19.814;2022-08-01T09:33:50;99149.88;;;28.27
61390;BMP280;47260;48.274;19.814;2022-08-01T09:36:19;99154.59;;;28.57
61390;BMP280;47260;48.274;19.814;2022-08-01T09:38:46;99158.75;;;28.74
61390;BMP280;47260;48.274;19.814;2022-08-01T09:41:13;99155.69;;;27.86
61390;BMP280;47260;48.274;19.814;2022-08-01T09:43:39;99157.66;;;27.84
61390;BMP280;47260;48.274;19.814;2022-08-01T09:46:10;99154.44;;;27.74
61390;BMP280;47260;48.274;19.814;2022-08-01T09:48:37;99158.22;;;27.67
61390;BMP280;47260;48.274;19.814;2022-08-01T09:51:06;99149.63;;;27.90
61390;BMP280;47260;48.274;19.814;2022-08-01T09:53:46;99155.16;;;27.90
61390;BMP280;47260;48.274;19.814;2022-08-01T09:56:14;99146.78;;;28.19
61390;BMP280;47260;48.274;19.814;2022-08-01T09:58:55;99154.56;;;28.24
61390;BMP280;47260;48.274;19.814;2022-08-01T10:01:22;99153.31;;;28.43
61390;BMP280;47260;48.274;19.814;2022-08-01T10:04:06;99149.50;;;28.67
61390;BMP280;47260;48.274;19.814;2022-08-01T10:06:32;99149.06;;;28.90
61390;BMP280;47260;48.274;19.814;2022-08-01T10:09:02;99149.47;;;29.18
61390;BMP280;47260;48.274;19.814;2022-08-01T10:11:30;99140.53;;;29.39
61390;BMP280;47260;48.274;19.814;2022-08-01T10:13:59;99140.03;;;29.25
61390;BMP280;47260;48.274;19.814;2022-08-01T10:16:26;99139.22;;;28.70
61390;BMP280;47260;48.274;19.814;2022-08-01T10:18:54;99136.34;;;28.17
61390;BMP280;47260;48.274;19.814;2022-08-01T10:21:23;99138.44;;;28.34
61390;BMP280;47260;48.274;19.814;2022-08-01T10:23:53;99134.72;;;28.28
61390;BMP280;47260;48.274;19.814;2022-08-01T10:26:25;99132.06;;;28.30
61390;BMP280;47260;48.274;19.814;2022-08-01T10:28:52;99142.81;;;28.57
61390;BMP280;47260;48.274;19.814;2022-08-01T10:31:20;99133.91;;;28.41
61390;BMP280;47260;48.274;19.814;2022-08-01T10:33:47;99132.91;;;28.01
61390;BMP280;47260;48.274;19.814;2022-08-01T10:36:17;99130.53;;;28.27
61390;BMP280;47260;48.274;19.814;2022-08-01T10:38:45;99125.19;;;28.31
61390;BMP280;47260;48.274;19.814;2022-08-01T10:41:13;99127.31;;;28.65
61390;BMP280;47260;48.274;19.814;2022-08-01T10:43:42;99128.25;;;28.89
61390;BMP280;47260;48.274;19.814;2022-08-01T10:46:09;99123.06;;;29.15
61390;BMP280;47260;48.274;19.814;2022-08-01T10:48:45;99129.19;;;29.31
61390;BMP280;47260;48.274;19.814;2022-08-01T10:51:13;99128.25;;;29.61
61390;BMP280;47260;48.274;19.814;2022-08-01T10:53:46;99125.22;;;29.36
61390;BMP280;47260;48.274;19.814;2022-08-01T10:56:14;99121.16;;;29.56
61390;BMP280;47260;48.274;19.814;2022-08-01T10:58:46;99119.75;;;29.75
61390;BMP280;47260;48.274;19.814;2022-08-01T11:01:22;99121.88;;;29.76
61390;BMP280;47260;48.274;19.814;2022-08-01T11:04:13;99125.56;;;29.63
61390;BMP280;47260;48.274;19.814;2022-08-01T11:06:53;99126.34;;;29.66
61390;BMP280;47260;48.274;19.814;2022-08-01T11:09:27;99117.06;;;29.77
61390;BMP280;47260;48.274;19.814;2022-08-01T11:11:59;99119.56;;;29.32
61390;BMP280;47260;48.274;19.814;2022-08-01T11:14:29;99114.03;;;29.32
61390;BMP280;47260;48.274;19.814;2022-08-01T11:17:31;99108.97;;;29.83
61390;BMP280;47260;48.274;19.814;2022-08-01T11:20:09;99104.16;;;30.24
61390;BMP280;47260;48.274;19.814;2022-08-01T11:26:07;99101.00;;;30.55
61390;BMP280;47260;48.274;19.814;2022-08-01T11:28:34;99100.72;;;30.26
61390;BMP280;47260;48.274;19.814;2022-08-01T11:31:30;99094.72;;;30.12
61390;BMP280;47260;48.274;19.814;2022-08-01T11:33:59;99093.44;;;30.15
61390;BMP280;47260;48.274;19.814;2022-08-01T11:36:26;99084.59;;;29.99
61390;BMP280;47260;48.274;19.814;2022-08-01T11:39:16;99090.03;;;29.95
61390;BMP280;47260;48.274;19.814;2022-08-01T11:41:45;99078.72;;;30.30
61390;BMP280;47260;48.274;19.814;2022-08-01T11:44:15;99072.47;;;30.29
61390;BMP280;47260;48.274;19.814;2022-08-01T11:46:54;99074.66;;;30.33
61390;BMP280;47260;48.274;19.814;2022-08-01T11:52:12;99075.81;;;29.46
61390;BMP280;47260;48.274;19.814;2022-08-01T11:54:42;99079.88;;;29.43
61390;BMP280;47260;48.274;19.814;2022-08-01T11:57:11;99083.97;;;29.05
61390;BMP280;47260;48.274;19.814;2022-08-01T11:59:39;99082.03;;;29.09
61390;BMP280;47260;48.274;19.814;2022-08-01T12:02:19;99073.03;;;29.46
61390;BMP280;47260;48.274;19.814;2022-08-01T12:04:51;99080.78;;;29.69
61390;BMP280;47260;48.274;19.814;2022-08-01T12:07:19;99080.53;;;29.80
61390;BMP280;47260;48.274;19.814;2022-08-01T12:09:47;99063.16;;;29.99
61390;BMP280;47260;48.274;19.814;2022-08-01T12:12:17;99072.66;;;30.35
61390;BMP280;47260;48.274;19.814;2022-08-01T12:14:44;99063.25;;;30.44
61390;BMP280;47260;48.274;19.814;2022-08-01T12:17:11;99066.91;;;30.51
61390;BMP280;47260;48.274;19.814;2022-08-01T12:19:40;99064.34;;;30.57
61390;BMP280;47260;48.274;19.814;2022-08-01T12:22:09;99068.47;;;30.56
61390;BMP280;47260;48.274;19.814;2022-08-01T12:24:37;99070.72;;;30.18
61390;BMP280;47260;48.274;19.814;2022-08-01T12:27:04;99076.28;;;29.99
61390;BMP280;47260;48.274;19.814;2022-08-01T12:29:36;99065.84;;;30.17
61390;BMP280;47260;48.274;19.814;2022-08-01T12:32:04;99064.50;;;29.98
61390;BMP280;47260;48.274;19.814;2022-08-01T12:34:31;99068.06;;;29.81
61390;BMP280;47260;48.274;19.814;2022-08-01T12:37:01;99067.56;;;29.87
61390;BMP280;47260;48.274;19.814;2022-08-01T12:39:32;99060.34;;;29.97
61390;BMP280;47260;48.274;19.814;2022-08-01T12:41:59;99064.25;;;29.90
61390;BMP280;47260;48.274;19.814;2022-08-01T12:44:27;99065.03;;;29.93
61390;BMP280;47260;48.274;19.814;2022-08-01T12:46:54;99060.41;;;29.99
61390;BMP280;47260;48.274;19.814;2022-08-01T12:49:21;99069.53;;;30.04
61390;BMP280;47260;48.274;19.814;2022-08-01T12:51:49;99067.06;;;29.92
61390;BMP280;47260;48.274;19.814;2022-08-01T12:54:17;99056.91;;;29.99
61390;BMP280;47260;48.274;19.814;2022-08-01T12:56:44;99059.13;;;30.02
61390;BMP280;47260;48.274;19.814;2022-08-01T12:59:22;99056.97;;;30.01
61390;BMP280;47260;48.274;19.814;2022-08-01T13:01:51;99060.66;;;30.07
61390;BMP280;47260;48.274;19.814;2022-08-01T13:04:18;99055.75;;;30.06
61390;BMP280;47260;48.274;19.814;2022-08-01T13:06:45;99048.22;;;30.08
61390;BMP280;47260;48.274;19.814;2022-08-01T13:09:12;99055.69;;;30.04
61390;BMP280;47260;48.274;19.814;2022-08-01T13:11:41;99056.72;;;29.93
61390;BMP280;47260;48.274;19.814;2022-08-01T13:14:09;99058.88;;;29.75
61390;BMP280;47260;48.274;19.814;2022-08-01T13:16:46;99068.94;;;29.66
61390;BMP280;47260;48.274;19.814;2022-08-01T13:19:13;99054.88;;;29.80
61390;BMP280;47260;48.274;19.814;2022-08-01T13:21:53;99055.00;;;29.84
61390;BMP280;47260;48.274;19.814;2022-08-01T13:24:25;99056.00;;;29.92
61390;BMP280;47260;48.274;19.814;2022-08-01T13:26:55;99058.25;;;29.98
61390;BMP280;47260;48.274;19.814;2022-08-01T13:29:30;99050.16;;;30.04
61390;BMP280;47260;48.274;19.814;2022-08-01T13:31:58;99050.59;;;30.18
61390;BMP280;47260;48.274;19.814;2022-08-01T13:34:31;99050.09;;;30.23
61390;BMP280;47260;48.274;19.814;2022-08-01T13:36:58;99043.47;;;30.11
61390;BMP280;47260;48.274;19.814;2022-08-01T13:39:28;99051.31;;;30.18
61390;BMP280;47260;48.274;19.814;2022-08-01T13:42:09;99056.03;;;30.14
61390;BMP280;47260;48.274;19.814;2022-08-01T13:44:36;99047.72;;;30.14
61390;BMP280;47260;48.274;19.814;2022-08-01T13:47:03;99049.06;;;30.13
61390;BMP280;47260;48.274;19.814;2022-08-01T13:49:30;99052.19;;;30.03
61390;BMP280;47260;48.274;19.814;2022-08-01T13:51:57;99056.56;;;29.89
61390;BMP280;47260;48.274;19.814;2022-08-01T13:54:24;99052.41;;;29.88
61390;BMP280;47260;48.274;19.814;2022-08-01T13:56:51;99065.09;;;29.75
61390;BMP280;47260;48.274;19.814;2022-08-01T13:59:21;99066.22;;;29.68
61390;BMP280;47260;48.274;19.814;2022-08-01T14:01:47;99063.81;;;29.59
61390;BMP280;47260;48.274;19.814;2022-08-01T14:04:14;99068.09;;;29.62
61390;BMP280;47260;48.274;19.814;2022-08-01T14:06:41;99064.53;;;29.59
61390;BMP280;47260;48.274;19.814;2022-08-01T14:09:08;99076.38;;;29.62
61390;BMP280;47260;48.274;19.814;2022-08-01T14:11:35;99068.75;;;29.60
61390;BMP280;47260;48.274;19.814;2022-08-01T14:14:02;99076.16;;;29.56